Time;durP1;ratioP1;P1;durP2;ratioP2;P2;SDS_P1;SDS_P2;PMS_P1;PMS_P2;Temp;Humidity;BMP_temperature;BMP_pressure;BME280_temperature;BME280_humidity;BME280_pressure;Samples;Min_cycle;Max_cycle;Signal;HPM_P1;HPM_P2
2021/01/22 00:00:00;;;;;;;50.00;34.60;;;5.30;99.50;;;;;;5108288;28;20667;-79
2021/01/22 00:02:25;;;;;;;47.73;36.20;;;5.30;99.50;;;;;;5109188;27;20172;-79
2021/01/22 00:04:51;;;;;;;45.60;36.73;;;5.30;99.50;;;;;;5109291;28;20225;-79
2021/01/22 00:07:17;;;;;;;44.50;34.67;;;5.30;99.60;;;;;;5109588;28;20604;-79
2021/01/22 00:09:42;;;;;;;47.07;37.77;;;5.20;99.70;;;;;;5108176;28;20255;-79
2021/01/22 00:12:08;;;;;;;48.57;35.17;;;5.20;99.80;;;;;;5109824;28;20614;-80
2021/01/22 00:14:34;;;;;;;43.17;33.40;;;5.20;99.80;;;;;;5109167;28;20266;-77
2021/01/22 00:16:59;;;;;;;46.07;34.97;;;5.10;99.90;;;;;;5109030;28;20187;-77
2021/01/22 00:19:25;;;;;;;45.30;34.37;;;5.10;99.90;;;;;;5108873;28;20200;-77
2021/01/22 00:21:51;;;;;;;42.53;34.57;;;5.00;99.90;;;;;;5108913;28;20183;-77
2021/01/22 00:24:16;;;;;;;43.83;33.70;;;5.00;99.90;;;;;;5108345;28;20176;-77
2021/01/22 00:26:42;;;;;;;46.70;35.60;;;5.00;99.90;;;;;;5106718;28;20182;-77
2021/01/22 00:29:08;;;;;;;46.13;35.60;;;4.90;99.90;;;;;;5109167;28;20171;-77
2021/01/22 00:31:33;;;;;;;49.50;33.77;;;5.00;99.90;;;;;;5107771;28;20184;-77
2021/01/22 00:33:59;;;;;;;45.60;35.00;;;4.90;99.90;;;;;;5109199;28;20519;-77
2021/01/22 00:36:25;;;;;;;44.47;36.23;;;4.90;99.90;;;;;;5108283;28;20229;-77
2021/01/22 00:38:50;;;;;;;45.00;34.23;;;4.90;99.90;;;;;;5108488;28;20201;-77
2021/01/22 00:41:16;;;;;;;47.30;34.70;;;4.90;99.90;;;;;;5108478;28;20263;-78
2021/01/22 00:43:43;;;;;;;43.07;35.53;;;4.90;99.90;;;;;;5107567;28;20176;-77
2021/01/22 00:46:08;;;;;;;44.15;33.45;;;4.80;99.90;;;;;;5108696;28;20600;-77
2021/01/22 00:48:35;;;;;;;43.70;34.27;;;4.80;99.90;;;;;;5108197;28;20282;-77
2021/01/22 00:51:01;;;;;;;46.30;32.88;;;4.70;99.90;;;;;;5106945;28;20180;-78
2021/01/22 00:53:27;;;;;;;46.15;33.55;;;4.60;99.90;;;;;;5108383;28;20508;-77
2021/01/22 00:55:52;;;;;;;41.77;35.37;;;4.70;99.90;;;;;;5108239;28;20253;-77
2021/01/22 00:58:18;;;;;;;46.10;34.03;;;4.70;99.90;;;;;;5108673;28;20198;-77
2021/01/22 01:00:44;;;;;;;49.77;35.27;;;4.80;99.90;;;;;;5107436;28;20635;-77
2021/01/22 01:03:09;;;;;;;45.63;35.47;;;4.90;99.90;;;;;;5107167;28;20703;-78
2021/01/22 01:05:35;;;;;;;43.53;32.23;;;4.80;99.90;;;;;;5107690;28;20254;-77
2021/01/22 01:08:01;;;;;;;43.83;33.90;;;4.90;99.90;;;;;;5107804;28;20656;-78
2021/01/22 01:10:26;;;;;;;42.20;32.30;;;4.90;99.90;;;;;;5108418;28;20182;-78
2021/01/22 01:12:52;;;;;;;47.33;30.60;;;5.00;99.80;;;;;;5107987;28;20284;-78
2021/01/22 01:15:17;;;;;;;42.73;31.07;;;5.00;99.80;;;;;;5107004;28;20183;-78
2021/01/22 01:17:43;;;;;;;41.17;33.73;;;5.10;99.70;;;;;;5108107;28;20612;-78
2021/01/22 01:20:10;;;;;;;43.60;31.33;;;5.10;99.60;;;;;;5107400;28;20246;-78
2021/01/22 01:22:36;;;;;;;34.10;30.23;;;5.20;99.80;;;;;;5106378;28;20199;-79
2021/01/22 01:25:04;;;;;;;38.50;29.48;;;5.20;99.40;;;;;;5107687;28;20624;-78
2021/01/22 01:27:30;;;;;;;37.75;29.27;;;5.20;99.40;;;;;;5106603;28;20172;-78
2021/01/22 01:29:55;;;;;;;38.07;30.43;;;5.30;99.30;;;;;;5108264;28;20521;-78
2021/01/22 01:32:21;;;;;;;38.90;28.30;;;5.20;99.30;;;;;;5106653;28;20616;-79
2021/01/22 01:34:46;;;;;;;38.53;29.47;;;5.30;99.30;;;;;;5107365;28;20252;-79
2021/01/22 01:37:12;;;;;;;43.67;28.40;;;5.20;99.30;;;;;;5106327;28;20544;-78
2021/01/22 01:39:38;;;;;;;37.17;28.47;;;5.20;99.30;;;;;;5107372;28;20726;-78
2021/01/22 01:42:04;;;;;;;37.57;29.40;;;5.30;99.30;;;;;;5107541;28;20200;-78
2021/01/22 01:44:29;;;;;;;36.28;27.65;;;5.30;99.20;;;;;;5107141;28;20184;-78
2021/01/22 01:46:55;;;;;;;37.90;28.67;;;5.20;99.30;;;;;;5106563;28;20611;-78
2021/01/22 01:49:21;;;;;;;35.77;26.70;;;5.20;99.30;;;;;;5106492;28;20670;-79
2021/01/22 01:51:46;;;;;;;38.90;29.50;;;5.20;99.40;;;;;;5107580;28;20591;-78
2021/01/22 01:54:12;;;;;;;33.70;27.03;;;5.30;99.30;;;;;;5106896;28;20740;-78
2021/01/22 01:56:38;;;;;;;36.00;28.27;;;5.20;99.30;;;;;;5106762;28;20224;-78
2021/01/22 01:59:04;;;;;;;36.20;28.30;;;5.20;99.30;;;;;;5107799;28;20478;-78
2021/01/22 02:01:32;;;;;;;40.73;28.57;;;5.20;99.40;;;;;;5107485;28;20466;-78
2021/01/22 02:03:58;;;;;;;38.17;31.88;;;5.30;99.30;;;;;;5106036;28;20174;-78
2021/01/22 02:06:23;;;;;;;34.95;26.70;;;5.30;99.30;;;;;;5107266;28;20184;-78
2021/01/22 02:08:49;;;;;;;32.77;27.57;;;5.30;99.30;;;;;;5107148;28;20191;-78
2021/01/22 02:11:16;;;;;;;33.40;26.70;;;5.30;99.30;;;;;;5107353;28;20635;-78
2021/01/22 02:13:44;;;;;;;31.70;26.13;;;5.30;99.40;;;;;;5107536;28;20210;-78
2021/01/22 02:16:11;;;;;;;30.52;25.83;;;5.30;99.40;;;;;;5107181;28;21053;-78
2021/01/22 02:18:37;;;;;;;36.15;24.90;;;5.50;99.20;;;;;;5105396;28;20718;-78
2021/01/22 02:21:17;;;;;;;32.92;24.38;;;5.50;99.20;;;;;;5104216;28;20705;-78
2021/01/22 02:23:46;;;;;;;30.10;24.75;;;5.50;99.10;;;;;;5107536;28;20207;-78
2021/01/22 02:26:28;;;;;;;29.98;22.48;;;5.50;99.20;;;;;;5107223;28;20249;-78
2021/01/22 02:29:06;;;;;;;34.35;24.92;;;5.50;99.20;;;;;;5105451;28;20215;-78
2021/01/22 02:31:35;;;;;;;35.83;25.00;;;5.60;99.10;;;;;;5106887;28;20546;-79
2021/01/22 02:34:06;;;;;;;31.98;26.52;;;5.70;99.00;;;;;;5107134;28;20518;-78
2021/01/22 02:36:35;;;;;;;30.75;24.55;;;5.60;99.00;;;;;;5105079;28;20298;-78
2021/01/22 02:39:04;;;;;;;33.85;26.00;;;5.70;98.80;;;;;;5107392;28;20199;-78
2021/01/22 02:41:32;;;;;;;32.10;25.27;;;5.70;98.80;;;;;;5107702;28;20864;-78
2021/01/22 02:44:03;;;;;;;31.77;23.50;;;5.70;98.90;;;;;;5106721;28;20211;-78
2021/01/22 02:46:29;;;;;;;36.75;26.60;;;5.50;99.20;;;;;;5106792;28;20168;-78
2021/01/22 02:48:56;;;;;;;30.58;25.92;;;5.50;99.20;;;;;;5105275;28;20183;-78
2021/01/22 02:51:22;;;;;;;33.50;26.50;;;5.50;99.20;;;;;;5107067;28;20183;-78
2021/01/22 02:53:48;;;;;;;32.63;27.10;;;5.60;99.00;;;;;;5105097;28;20186;-78
2021/01/22 02:56:56;;;;;;;35.00;28.63;;;5.50;99.00;;;;;;5104470;28;20243;-78
2021/01/22 02:59:40;;;;;;;35.70;24.38;;;5.40;99.30;;;;;;5048857;28;20215;-78
2021/01/22 03:02:14;;;;;;;31.30;25.83;;;5.50;99.00;;;;;;5104585;28;20191;-78
2021/01/22 03:04:41;;;;;;;27.58;24.60;;;5.50;99.10;;;;;;5110098;28;20639;-78
2021/01/22 03:07:12;;;;;;;33.03;24.40;;;5.40;99.10;;;;;;5110520;28;20171;-78
2021/01/22 03:09:42;;;;;;;32.97;23.85;;;5.40;99.20;;;;;;5109928;28;20175;-79
2021/01/22 03:12:08;;;;;;;27.50;22.15;;;5.40;99.30;;;;;;5110101;28;20168;-78
2021/01/22 03:14:34;;;;;;;30.88;24.27;;;5.30;99.30;;;;;;5110342;28;20215;-78
2021/01/22 03:17:01;;;;;;;31.50;24.73;;;5.40;99.20;;;;;;5110507;27;20176;-78
2021/01/22 03:19:26;;;;;;;26.63;23.70;;;5.50;99.00;;;;;;5109855;28;20199;-78
2021/01/22 03:21:52;;;;;;;28.13;21.90;;;5.40;99.10;;;;;;5110047;28;20171;-78
2021/01/22 03:24:18;;;;;;;35.30;27.50;;;5.50;99.00;;;;;;5110444;28;20304;-78
2021/01/22 03:26:43;;;;;;;28.03;24.67;;;5.50;99.10;;;;;;5108985;28;20198;-78
2021/01/22 03:29:09;;;;;;;29.53;24.53;;;5.50;99.00;;;;;;5110338;28;20174;-78
2021/01/22 03:31:35;;;;;;;33.43;23.23;;;5.40;99.10;;;;;;5109526;28;20180;-78
2021/01/22 03:34:00;;;;;;;25.23;22.53;;;5.40;99.20;;;;;;5109706;28;20248;-79
2021/01/22 03:36:26;;;;;;;26.10;20.47;;;5.40;99.20;;;;;;5109325;28;20279;-78
2021/01/22 03:38:52;;;;;;;27.47;22.70;;;5.40;99.20;;;;;;5109740;27;20192;-78
2021/01/22 03:41:18;;;;;;;26.03;20.63;;;5.50;99.00;;;;;;5109705;28;20184;-79
2021/01/22 03:43:43;;;;;;;28.23;22.00;;;5.50;99.10;;;;;;5108728;28;20757;-78
2021/01/22 03:46:09;;;;;;;24.23;19.13;;;5.40;99.20;;;;;;5108529;28;20387;-79
2021/01/22 03:48:35;;;;;;;35.93;24.93;;;5.40;99.30;;;;;;5107488;28;20585;-79
2021/01/22 03:51:00;;;;;;;23.10;19.87;;;5.50;99.20;;;;;;5109966;28;20187;-78
2021/01/22 03:53:26;;;;;;;23.17;19.87;;;5.40;99.30;;;;;;5109420;28;20176;-78
2021/01/22 03:55:52;;;;;;;24.27;19.70;;;5.50;99.30;;;;;;5109616;28;20232;-78
2021/01/22 03:58:17;;;;;;;26.90;19.37;;;5.50;99.20;;;;;;5109323;28;20187;-78
2021/01/22 04:00:44;;;;;;;25.40;20.20;;;5.70;99.00;;;;;;5108504;28;20500;-78
2021/01/22 04:03:09;;;;;;;26.85;23.73;;;5.60;99.20;;;;;;5108335;28;20673;-79
2021/01/22 04:05:35;;;;;;;25.90;22.40;;;5.70;98.90;;;;;;5109500;28;20168;-79
2021/01/22 04:08:01;;;;;;;25.30;21.43;;;5.70;98.90;;;;;;5109432;28;20206;-79
2021/01/22 04:10:26;;;;;;;23.77;21.07;;;5.80;98.50;;;;;;5108796;28;20200;-79
2021/01/22 04:12:52;;;;;;;24.80;21.40;;;5.70;98.60;;;;;;5109045;28;20196;-79
2021/01/22 04:15:18;;;;;;;24.58;21.90;;;5.80;98.60;;;;;;5108017;28;20232;-78
2021/01/22 04:17:44;;;;;;;25.50;20.97;;;5.70;98.60;;;;;;5108961;28;20187;-78
2021/01/22 04:20:10;;;;;;;27.53;22.43;;;5.60;98.70;;;;;;5109392;28;20204;-79
2021/01/22 04:22:36;;;;;;;28.52;23.48;;;5.70;98.50;;;;;;5108763;28;20176;-78
2021/01/22 04:25:01;;;;;;;28.13;22.67;;;5.80;98.30;;;;;;5109140;28;20172;-78
2021/01/22 04:27:27;;;;;;;26.57;23.77;;;5.70;98.40;;;;;;5109376;28;20519;-79
2021/01/22 04:29:52;;;;;;;26.03;22.03;;;5.80;98.30;;;;;;5108472;28;20183;-78
2021/01/22 04:32:18;;;;;;;24.10;21.50;;;5.70;98.30;;;;;;5106441;28;20543;-78
2021/01/22 04:34:44;;;;;;;23.03;20.50;;;5.70;98.30;;;;;;5108925;28;20199;-79
2021/01/22 04:37:09;;;;;;;25.13;19.90;;;6.00;97.80;;;;;;5109006;28;20761;-78
2021/01/22 04:39:36;;;;;;;27.07;22.27;;;5.90;97.90;;;;;;5107788;28;20732;-78
2021/01/22 04:42:03;;;;;;;24.77;19.02;;;6.00;97.80;;;;;;5108746;28;20221;-78
2021/01/22 04:44:29;;;;;;;21.15;18.95;;;5.90;97.80;;;;;;5109461;28;20263;-78
2021/01/22 04:46:55;;;;;;;23.43;18.17;;;6.00;97.40;;;;;;5108411;28;20704;-78
2021/01/22 04:49:21;;;;;;;21.90;19.20;;;6.10;97.40;;;;;;5107849;28;20269;-78
2021/01/22 04:51:50;;;;;;;22.25;17.00;;;6.10;97.40;;;;;;5108970;28;21298;-78
2021/01/22 04:54:36;;;;;;;23.20;17.35;;;6.10;97.20;;;;;;5108965;28;20520;-79
2021/01/22 04:57:02;;;;;;;23.17;17.90;;;6.00;97.30;;;;;;5108817;28;20180;-79
2021/01/22 04:59:31;;;;;;;24.10;18.50;;;5.90;97.70;;;;;;5108419;28;20209;-78
2021/01/22 05:01:59;;;;;;;22.85;20.10;;;6.00;97.40;;;;;;5107435;28;20210;-79
2021/01/22 05:04:25;;;;;;;22.48;19.98;;;5.90;97.40;;;;;;5108075;28;20591;-79
2021/01/22 05:06:51;;;;;;;22.20;19.87;;;5.90;97.50;;;;;;5107696;28;20279;-79
2021/01/22 05:09:17;;;;;;;23.30;19.10;;;5.90;97.50;;;;;;5109249;28;20985;-79
2021/01/22 05:11:43;;;;;;;23.05;18.55;;;5.80;97.40;;;;;;5106170;28;20195;-79
2021/01/22 05:14:09;;;;;;;25.53;18.73;;;5.80;97.50;;;;;;5108853;28;20184;-79
2021/01/22 05:16:35;;;;;;;22.73;18.75;;;5.80;97.60;;;;;;5108118;28;20184;-79
2021/01/22 05:19:20;;;;;;;21.43;17.63;;;5.80;97.60;;;;;;5108315;28;20203;-79
2021/01/22 05:21:46;;;;;;;20.85;18.33;;;5.80;97.50;;;;;;5106901;28;20163;-80
2021/01/22 05:24:22;;;;;;;20.48;17.15;;;5.90;97.30;;;;;;5107326;28;20175;-79
2021/01/22 05:26:58;;;;;;;27.23;17.75;;;5.90;97.40;;;;;;5106912;28;20217;-79
2021/01/22 05:29:24;;;;;;;29.30;22.67;;;6.00;97.10;;;;;;5106926;28;20186;-79
2021/01/22 05:31:49;;;;;;;20.80;17.37;;;5.90;97.10;;;;;;5108511;28;20183;-79
2021/01/22 05:34:15;;;;;;;19.13;16.93;;;5.90;97.00;;;;;;5108150;28;20217;-79
2021/01/22 05:36:41;;;;;;;20.50;17.87;;;5.80;97.30;;;;;;5107713;28;20183;-79
2021/01/22 05:39:18;;;;;;;20.13;18.00;;;5.70;97.60;;;;;;5108397;28;20271;-79
2021/01/22 05:41:54;;;;;;;20.42;18.05;;;5.80;97.30;;;;;;5108609;28;20176;-79
2021/01/22 05:44:31;;;;;;;27.13;17.50;;;5.90;97.10;;;;;;5108681;27;20167;-79
2021/01/22 05:47:42;;;;;;;18.15;16.25;;;6.00;96.90;;;;;;5106426;28;20210;-80
2021/01/22 05:50:52;;;;;;;18.85;16.80;;;6.10;96.30;;;;;;5084667;28;20342;-78
2021/01/22 05:54:01;;;;;;;20.33;18.20;;;6.10;96.30;;;;;;5042655;28;20340;-78
2021/01/22 05:57:10;;;;;;;17.60;15.70;;;6.10;96.60;;;;;;5004709;28;20234;-78
2021/01/22 06:03:55;;;;;;;18.85;16.70;;;6.10;96.40;;;;;;4985049;28;20609;-78
2021/01/22 06:06:42;;;;;;;20.58;15.70;;;6.10;96.50;;;;;;4985355;28;20184;-78
2021/01/22 06:09:11;;;;;;;21.55;16.38;;;6.20;96.20;;;;;;4984704;28;20204;-78
2021/01/22 06:12:04;;;;;;;20.63;17.17;;;6.20;96.00;;;;;;4985290;28;20202;-78
2021/01/22 06:14:38;;;;;;;19.30;15.82;;;6.20;96.00;;;;;;4984655;28;20786;-78
2021/01/22 06:17:15;;;;;;;18.45;16.55;;;6.20;96.10;;;;;;4985437;28;20691;-78
2021/01/22 06:20:07;;;;;;;21.15;16.40;;;6.10;96.20;;;;;;4986062;28;20735;-79
2021/01/22 06:22:49;;;;;;;19.02;14.77;;;6.20;96.00;;;;;;5040394;28;20190;-78
2021/01/22 06:25:17;;;;;;;17.23;14.48;;;6.30;95.90;;;;;;5043713;28;20204;-79
2021/01/22 06:27:57;;;;;;;18.25;16.13;;;6.30;95.80;;;;;;5044643;28;20618;-79
2021/01/22 06:30:24;;;;;;;19.75;17.58;;;6.30;95.80;;;;;;5057418;28;20192;-79
2021/01/22 06:32:50;;;;;;;19.17;14.52;;;6.30;95.70;;;;;;5089974;28;20198;-78
2021/01/22 06:35:16;;;;;;;18.13;15.90;;;6.50;95.60;;;;;;5111096;28;20176;-79
2021/01/22 06:37:42;;;;;;;18.05;16.02;;;6.50;95.40;;;;;;5109913;28;20207;-78
2021/01/22 06:40:09;;;;;;;18.17;15.23;;;6.50;95.50;;;;;;5110564;28;20800;-78
2021/01/22 06:42:39;;;;;;;19.65;15.45;;;6.50;95.30;;;;;;5110708;28;20180;-78
2021/01/22 06:45:06;;;;;;;19.10;17.13;;;6.60;95.30;;;;;;5111915;28;20209;-79
2021/01/22 06:47:32;;;;;;;19.35;15.70;;;6.70;95.10;;;;;;5111407;28;20202;-78
2021/01/22 06:49:58;;;;;;;17.70;15.60;;;6.70;95.10;;;;;;5110778;28;20179;-78
2021/01/22 06:52:23;;;;;;;21.37;16.77;;;6.80;94.80;;;;;;5110617;28;20188;-79
2021/01/22 06:55:10;;;;;;;18.00;15.37;;;6.80;94.70;;;;;;5111678;28;20212;-78
2021/01/22 06:57:37;;;;;;;20.45;18.33;;;6.90;94.70;;;;;;5112558;28;20589;-80
2021/01/22 07:00:35;;;;;;;20.27;16.52;;;6.90;94.60;;;;;;5110628;28;20516;-77
2021/01/22 07:03:00;;;;;;;16.65;15.05;;;7.00;94.70;;;;;;5105119;28;20209;-80
2021/01/22 07:05:29;;;;;;;18.30;15.50;;;7.20;94.20;;;;;;5111849;28;20172;-79
2021/01/22 07:08:05;;;;;;;17.13;15.32;;;7.20;94.00;;;;;;5101221;28;20199;-79
2021/01/22 07:10:58;;;;;;;16.85;15.15;;;7.20;94.40;;;;;;5109899;28;20160;-80
2021/01/22 07:13:32;;;;;;;17.40;15.70;;;7.20;94.30;;;;;;5089543;28;20256;-79
2021/01/22 07:16:06;;;;;;;18.25;16.52;;;7.30;94.00;;;;;;5091185;28;20172;-80
2021/01/22 07:18:45;;;;;;;17.15;15.30;;;7.30;94.10;;;;;;5111358;28;20671;-79
2021/01/22 07:21:24;;;;;;;18.45;15.88;;;7.30;94.30;;;;;;5105746;28;20172;-79
2021/01/22 07:24:00;;;;;;;17.77;15.68;;;7.20;94.50;;;;;;5109286;28;20190;-79
2021/01/22 07:26:37;;;;;;;17.10;15.30;;;7.20;94.30;;;;;;5096014;28;20175;-79
2021/01/22 07:29:17;;;;;;;20.27;16.88;;;7.20;94.50;;;;;;5115052;27;20187;-80
2021/01/22 07:32:01;;;;;;;19.75;16.75;;;7.30;94.30;;;;;;5107218;27;20189;-79
2021/01/22 07:34:48;;;;;;;23.20;17.02;;;7.30;94.20;;;;;;5096103;28;20194;-80
2021/01/22 07:37:18;;;;;;;17.45;14.85;;;7.40;94.30;;;;;;5108722;28;20574;-79
2021/01/22 07:39:45;;;;;;;17.20;14.93;;;7.40;94.20;;;;;;5097913;28;20200;-79
2021/01/22 07:42:16;;;;;;;20.80;18.60;;;7.40;94.30;;;;;;5103317;28;20187;-80
2021/01/22 07:44:44;;;;;;;19.83;17.80;;;7.40;94.20;;;;;;5114401;27;20171;-79
2021/01/22 07:47:22;;;;;;;16.25;14.65;;;7.40;94.40;;;;;;5105769;28;20669;-79
2021/01/22 07:50:02;;;;;;;17.02;15.32;;;7.50;94.30;;;;;;5110394;28;20593;-80
2021/01/22 07:52:28;;;;;;;19.10;14.80;;;7.40;94.40;;;;;;5088838;28;20330;-79
2021/01/22 07:54:54;;;;;;;18.17;15.10;;;7.50;94.30;;;;;;5107951;28;21161;-79
2021/01/22 07:57:26;;;;;;;20.45;14.45;;;7.50;94.20;;;;;;5106005;28;20183;-79
2021/01/22 07:59:52;;;;;;;17.02;15.25;;;7.60;94.30;;;;;;5108253;28;20310;-79
2021/01/22 08:02:23;;;;;;;16.67;13.77;;;7.70;93.90;;;;;;5102857;28;20263;-80
2021/01/22 08:05:00;;;;;;;14.40;13.10;;;7.70;93.90;;;;;;5106490;28;20279;-79
2021/01/22 08:07:39;;;;;;;18.02;14.30;;;7.70;93.70;;;;;;5110867;27;20279;-79
2021/01/22 08:10:10;;;;;;;14.82;13.27;;;7.70;93.90;;;;;;5109991;28;20180;-79
2021/01/22 08:12:38;;;;;;;15.10;13.60;;;7.80;93.90;;;;;;5106339;28;20229;-79
2021/01/22 08:15:17;;;;;;;16.67;13.60;;;7.70;94.10;;;;;;5107176;28;20258;-80
2021/01/22 08:17:47;;;;;;;15.98;13.75;;;7.90;93.80;;;;;;5110502;28;20187;-79
2021/01/22 08:20:14;;;;;;;15.82;14.00;;;7.80;93.90;;;;;;5113568;27;20195;-79
2021/01/22 08:22:40;;;;;;;16.45;14.75;;;7.90;93.90;;;;;;5104495;28;20948;-79
2021/01/22 08:25:06;;;;;;;18.02;14.23;;;7.90;93.80;;;;;;5104054;28;20524;-79
2021/01/22 08:27:35;;;;;;;15.15;13.55;;;8.00;93.80;;;;;;5111993;28;20271;-79
2021/01/22 08:30:01;;;;;;;16.33;14.38;;;8.00;93.70;;;;;;5102432;28;20652;-79
2021/01/22 08:32:31;;;;;;;20.30;14.13;;;8.10;93.80;;;;;;5110684;28;20184;-79
2021/01/22 08:34:57;;;;;;;16.98;11.73;;;8.20;93.50;;;;;;5111905;27;20651;-79
2021/01/22 08:37:23;;;;;;;14.40;12.23;;;8.10;93.60;;;;;;5097912;28;20283;-79
2021/01/22 08:39:59;;;;;;;16.95;15.15;;;8.20;93.40;;;;;;5108493;28;20447;-80
2021/01/22 08:42:30;;;;;;;16.25;13.50;;;8.40;93.10;;;;;;5092558;28;20188;-79
2021/01/22 08:45:00;;;;;;;15.55;13.85;;;8.50;92.70;;;;;;5108213;27;20186;-80
2021/01/22 08:47:28;;;;;;;14.73;13.15;;;8.50;92.60;;;;;;5106913;27;20539;-80
2021/01/22 08:50:03;;;;;;;15.88;14.30;;;8.60;92.70;;;;;;5112687;27;20536;-80
2021/01/22 08:52:29;;;;;;;17.35;15.15;;;8.80;92.50;;;;;;5110390;27;20578;-79
2021/01/22 08:54:57;;;;;;;19.98;15.48;;;8.80;92.80;;;;;;5112104;28;20664;-80
2021/01/22 08:57:25;;;;;;;18.08;15.25;;;8.90;92.30;;;;;;5100664;28;20695;-80
2021/01/22 08:59:56;;;;;;;16.60;14.02;;;8.90;92.30;;;;;;5101780;28;20230;-79
2021/01/22 09:02:54;;;;;;;18.23;14.45;;;9.00;92.30;;;;;;5097585;28;20188;-79
2021/01/22 09:05:21;;;;;;;17.67;14.70;;;9.00;92.90;;;;;;5099706;28;20667;-79
2021/01/22 09:08:08;;;;;;;21.23;17.48;;;9.10;92.80;;;;;;5104248;28;20203;-80
2021/01/22 09:10:39;;;;;;;18.40;14.75;;;9.40;92.10;;;;;;5100420;28;20198;-77
2021/01/22 09:13:16;;;;;;;20.38;15.95;;;9.40;91.90;;;;;;5102694;27;20179;-80
2021/01/22 09:15:43;;;;;;;19.50;17.40;;;9.40;92.40;;;;;;5109770;27;20190;-80
2021/01/22 09:18:16;;;;;;;18.63;16.63;;;9.60;92.00;;;;;;5118164;27;20283;-80
2021/01/22 09:20:44;;;;;;;16.77;14.98;;;9.60;91.60;;;;;;5108108;27;20195;-79
2021/01/22 09:23:10;;;;;;;20.50;17.35;;;9.30;92.60;;;;;;5101891;27;20554;-78
2021/01/22 09:25:36;;;;;;;21.65;17.42;;;9.40;92.40;;;;;;5119308;27;20611;-78
2021/01/22 09:28:02;;;;;;;17.90;15.17;;;9.60;92.10;;;;;;5094170;28;20176;-80
2021/01/22 09:30:28;;;;;;;17.67;14.97;;;9.70;91.80;;;;;;5113808;27;20822;-78
2021/01/22 09:32:56;;;;;;;22.25;14.05;;;9.70;91.90;;;;;;5109803;27;20205;-78
2021/01/22 09:35:27;;;;;;;19.73;15.88;;;9.70;91.90;;;;;;5109846;28;20199;-78
2021/01/22 09:37:52;;;;;;;20.90;15.45;;;9.80;92.10;;;;;;5091367;28;20193;-79
2021/01/22 09:40:20;;;;;;;19.47;16.43;;;9.80;91.90;;;;;;5102254;28;20212;-79
2021/01/22 09:42:45;;;;;;;17.30;15.52;;;9.90;92.30;;;;;;5107227;28;20465;-79
2021/01/22 09:45:12;;;;;;;18.67;15.67;;;9.80;92.20;;;;;;5112037;28;20192;-79
2021/01/22 09:47:38;;;;;;;19.67;17.17;;;9.90;91.80;;;;;;5104584;28;20647;-78
2021/01/22 09:50:07;;;;;;;18.97;15.27;;;10.00;92.20;;;;;;5101081;27;20196;-78
2021/01/22 09:52:36;;;;;;;16.33;14.63;;;10.10;91.60;;;;;;5111391;27;20171;-78
2021/01/22 09:55:03;;;;;;;17.90;14.88;;;10.30;90.90;;;;;;5105204;28;20234;-78
2021/01/22 09:57:29;;;;;;;19.70;16.92;;;10.40;90.70;;;;;;5094267;28;20192;-78
2021/01/22 09:59:55;;;;;;;17.10;15.40;;;10.60;90.10;;;;;;5099470;28;20553;-79
2021/01/22 10:02:23;;;;;;;19.10;16.08;;;10.80;90.00;;;;;;5104567;27;20263;-79
2021/01/22 10:04:48;;;;;;;20.77;16.80;;;10.80;90.30;;;;;;5107996;28;20192;-78
2021/01/22 10:07:14;;;;;;;18.60;14.43;;;10.90;90.10;;;;;;5098180;28;20185;-79
2021/01/22 10:09:39;;;;;;;20.07;13.83;;;11.00;91.00;;;;;;5099290;28;21046;-80
2021/01/22 10:12:07;;;;;;;21.57;17.37;;;11.30;89.10;;;;;;5106347;28;20232;-79
2021/01/22 10:14:33;;;;;;;22.48;20.23;;;11.90;87.70;;;;;;5110924;28;20229;-79
2021/01/22 10:16:58;;;;;;;20.40;18.07;;;12.20;84.50;;;;;;5110524;28;20574;-80
2021/01/22 10:19:24;;;;;;;19.27;17.13;;;12.10;83.30;;;;;;5101362;28;20492;-79
2021/01/22 10:21:50;;;;;;;25.77;17.50;;;11.80;85.20;;;;;;5108871;28;21222;-79
2021/01/22 10:24:16;;;;;;;24.13;18.70;;;11.30;88.20;;;;;;5102610;28;20210;-79
2021/01/22 10:26:42;;;;;;;20.60;18.40;;;11.30;88.90;;;;;;5108678;28;20171;-79
2021/01/22 10:29:07;;;;;;;23.83;19.53;;;11.20;89.00;;;;;;5100284;28;20412;-80
2021/01/22 10:31:33;;;;;;;21.30;16.87;;;11.10;89.90;;;;;;5109988;28;20775;-79
2021/01/22 10:33:59;;;;;;;21.10;17.63;;;11.30;89.20;;;;;;5102864;28;20541;-80
2021/01/22 10:36:25;;;;;;;21.70;17.90;;;11.40;88.50;;;;;;5096818;28;20192;-79
2021/01/22 10:38:50;;;;;;;27.40;19.43;;;11.20;89.00;;;;;;5097051;28;20451;-79
2021/01/22 10:41:16;;;;;;;22.20;15.80;;;11.30;89.20;;;;;;5106589;28;20180;-79
2021/01/22 10:43:42;;;;;;;20.00;16.90;;;11.50;89.30;;;;;;5103608;28;20176;-79
2021/01/22 10:46:08;;;;;;;21.10;15.63;;;11.50;88.90;;;;;;5104848;28;20195;-79
2021/01/22 10:48:33;;;;;;;18.83;14.17;;;11.50;89.70;;;;;;5090532;28;20654;-80
2021/01/22 10:50:59;;;;;;;20.80;14.80;;;11.50;88.70;;;;;;5104016;28;20172;-80
2021/01/22 10:53:27;;;;;;;18.30;15.70;;;11.30;89.90;;;;;;5105423;28;20192;-80
2021/01/22 10:55:53;;;;;;;17.83;14.32;;;11.30;90.00;;;;;;5108379;28;20879;-79
2021/01/22 10:58:21;;;;;;;17.10;14.30;;;11.30;90.00;;;;;;5108066;28;20179;-80
2021/01/22 11:00:47;;;;;;;18.65;15.73;;;11.30;90.20;;;;;;5105613;28;20899;-80
2021/01/22 11:03:13;;;;;;;16.40;13.95;;;11.20;90.20;;;;;;5108640;28;20176;-80
2021/01/22 11:05:39;;;;;;;17.50;15.70;;;11.20;90.50;;;;;;5109896;28;20184;-81
2021/01/22 11:08:05;;;;;;;20.43;16.23;;;11.20;90.40;;;;;;5089487;28;20177;-80
2021/01/22 11:10:30;;;;;;;21.23;17.65;;;11.20;90.70;;;;;;5099186;28;20202;-80
2021/01/22 11:12:56;;;;;;;23.23;17.73;;;11.20;90.60;;;;;;5099464;28;20206;-80
2021/01/22 11:15:22;;;;;;;20.40;16.30;;;11.30;90.80;;;;;;5114697;28;20190;-79
2021/01/22 11:17:48;;;;;;;18.10;15.17;;;11.20;90.90;;;;;;5108746;28;20804;-80
2021/01/22 11:20:15;;;;;;;19.90;15.90;;;11.30;91.00;;;;;;5104003;28;20440;-80
2021/01/22 11:22:41;;;;;;;19.67;16.52;;;11.40;90.80;;;;;;5100975;28;20184;-80
2021/01/22 11:25:07;;;;;;;17.87;14.17;;;11.30;91.40;;;;;;5103724;28;20635;-81
2021/01/22 11:27:32;;;;;;;17.70;12.73;;;11.20;91.70;;;;;;5113163;28;20203;-80
2021/01/22 11:29:58;;;;;;;16.87;14.40;;;11.20;91.80;;;;;;5103459;28;20234;-80
2021/01/22 11:32:24;;;;;;;21.00;15.57;;;11.10;92.20;;;;;;5113031;28;20212;-78
2021/01/22 11:34:50;;;;;;;15.93;14.03;;;11.10;92.50;;;;;;5103908;28;20201;-78
2021/01/22 11:37:15;;;;;;;15.23;13.67;;;11.00;92.80;;;;;;5099604;28;20825;-79
2021/01/22 11:39:41;;;;;;;16.20;14.50;;;11.20;92.50;;;;;;5106461;28;20643;-79
2021/01/22 11:42:09;;;;;;;15.60;13.00;;;11.10;92.50;;;;;;5103225;27;20218;-79
2021/01/22 11:44:35;;;;;;;15.73;14.13;;;11.20;92.80;;;;;;5110579;27;20216;-78
2021/01/22 11:47:01;;;;;;;18.40;15.93;;;11.20;92.90;;;;;;5110346;27;20188;-79
2021/01/22 11:49:26;;;;;;;19.13;15.60;;;11.20;93.00;;;;;;5103176;28;20477;-79
2021/01/22 11:51:52;;;;;;;19.93;16.13;;;11.10;93.30;;;;;;5096092;28;20416;-80
2021/01/22 11:54:18;;;;;;;18.63;14.83;;;11.20;93.20;;;;;;5095878;28;20676;-80
2021/01/22 11:56:46;;;;;;;17.73;15.23;;;11.30;93.20;;;;;;5117928;27;20471;-79
2021/01/22 11:59:12;;;;;;;18.63;16.55;;;11.10;93.70;;;;;;5104120;28;20558;-79
2021/01/22 12:01:38;;;;;;;20.93;16.43;;;11.10;93.70;;;;;;5100019;28;20867;-79
2021/01/22 12:04:04;;;;;;;18.17;16.30;;;11.20;93.50;;;;;;5110121;27;20693;-78
2021/01/22 12:06:30;;;;;;;18.95;14.93;;;11.10;93.70;;;;;;5102173;28;20192;-79
2021/01/22 12:08:56;;;;;;;20.63;15.27;;;11.20;93.60;;;;;;5096493;27;20417;-79
2021/01/22 12:11:21;;;;;;;18.83;16.87;;;11.20;93.50;;;;;;5107655;27;20440;-78
2021/01/22 12:13:47;;;;;;;19.30;16.37;;;11.30;93.70;;;;;;5100099;28;20184;-78
2021/01/22 12:16:13;;;;;;;17.13;15.33;;;11.30;93.60;;;;;;5106930;28;20180;-79
2021/01/22 12:18:41;;;;;;;18.37;16.40;;;11.20;93.70;;;;;;5110597;27;20202;-80
2021/01/22 12:21:09;;;;;;;20.58;18.38;;;11.20;93.70;;;;;;5107919;27;20639;-79
2021/01/22 12:23:35;;;;;;;21.38;16.92;;;11.40;93.40;;;;;;5104478;27;20184;-79
2021/01/22 12:26:01;;;;;;;19.93;15.70;;;11.40;93.50;;;;;;5106800;28;20217;-79
2021/01/22 12:28:27;;;;;;;18.37;16.57;;;11.30;93.80;;;;;;5103153;28;20835;-79
2021/01/22 12:30:53;;;;;;;18.85;16.77;;;11.30;93.80;;;;;;5109071;28;20183;-80
2021/01/22 12:33:19;;;;;;;25.55;22.85;;;11.40;93.80;;;;;;5090949;28;20225;-80
2021/01/22 12:35:49;;;;;;;25.30;21.27;;;11.40;93.80;;;;;;5107207;28;20254;-79
2021/01/22 12:38:19;;;;;;;26.52;21.70;;;11.50;93.60;;;;;;5095144;28;20180;-79
2021/01/22 12:40:44;;;;;;;21.75;19.20;;;11.40;93.50;;;;;;5099010;28;20599;-79
2021/01/22 12:43:10;;;;;;;20.40;18.20;;;11.40;93.50;;;;;;5093514;28;20265;-80
2021/01/22 12:45:36;;;;;;;18.83;16.77;;;11.40;93.50;;;;;;5113220;28;20423;-79
2021/01/22 12:48:04;;;;;;;18.73;16.83;;;11.40;93.50;;;;;;5093435;28;20629;-80